Terminal Aerodrome Forecast
Issued by NWS Blacksburg, VA

Current Version | Previous Version | Text Only | Print | Product List | Glossary On
Versions: 1 2 3 4 5 6 7 8 9 10 11 12 13 14 15 16 17 18 19 20 21 22 23 24 25 26 27 28 29 30 31 32 33 34 35 36 37 38 39 40 41 42 43 44 45
000
FTUS41 KRNK 162339
TAFBLF
TAF
KBLF 162339Z 1700/1724 00000KT P6SM BKN015
      TEMPO 1700/1701 SCT015
     FM170300 00000KT 4SM BR OVC004
      TEMPO 1710/1712 1SM -DZ BR OVC004
     FM171600 15003KT P6SM SCT007 BKN020
     FM171800 21003KT P6SM SCT040=

USA.gov is the U.S. government's official web portal to all federal, state and local government web resources and services.